Time;durP1;ratioP1;P1;durP2;ratioP2;P2;SDS_P1;SDS_P2;PMS_P1;PMS_P2;Temp;Humidity;BMP_temperature;BMP_pressure;BME280_temperature;BME280_humidity;BME280_pressure;Samples;Min_cycle;Max_cycle;Signal;HPM_P1;HPM_P2
2024/01/18 05:04:18;;;;;;;20.98;8.95;;;;;;;3.83;100.00;68933.78;6237178;28;20985;31
2024/01/18 05:07:22;;;;;;;18.80;9.00;;;;;;;3.86;100.00;68936.66;5236116;34;33302;-83
2024/01/18 05:10:26;;;;;;;21.80;9.00;;;;;;;3.95;100.00;69002.59;5225449;34;33572;-84
2024/01/18 05:13:30;;;;;;;16.55;8.85;;;;;;;3.93;100.00;68946.84;5225557;34;33051;-83
2024/01/18 05:16:38;;;;;;;16.85;8.82;;;;;;;3.93;100.00;68944.75;5225244;34;34402;-84
2024/01/18 05:19:41;;;;;;;17.25;9.02;;;;;;;3.95;100.00;68947.09;5226027;34;34265;-84
2024/01/18 05:22:44;;;;;;;21.52;9.38;;;;;;;3.94;100.00;68945.34;5225684;34;33262;-84
2024/01/18 05:25:47;;;;;;;19.30;8.68;;;;;;;3.91;100.00;68995.31;5238789;34;33642;-83
2024/01/18 05:28:50;;;;;;;20.60;8.95;;;;;;;3.92;100.00;68943.03;5238656;34;34062;-84
2024/01/18 05:31:53;;;;;;;18.17;9.15;;;;;;;3.92;100.00;68937.75;5238532;34;33600;-83
2024/01/18 05:34:56;;;;;;;18.80;8.55;;;;;;;3.90;100.00;68940.72;5238335;34;34384;-84
2024/01/18 05:37:59;;;;;;;15.25;8.10;;;;;;;3.93;100.00;68944.19;5239372;34;33508;-84
2024/01/18 05:41:02;;;;;;;15.75;8.18;;;;;;;4.00;100.00;69007.78;5226721;34;33495;-83
2024/01/18 05:44:05;;;;;;;14.75;8.05;;;;;;;4.03;100.00;68953.66;5214507;34;33368;-84
2024/01/18 05:47:08;;;;;;;15.43;8.75;;;;;;;4.09;100.00;68960.03;5242131;34;33520;-84
2024/01/18 05:50:11;;;;;;;16.83;8.38;;;;;;;4.22;100.00;68974.47;5234846;34;33620;-84
2024/01/18 05:53:14;;;;;;;15.40;9.05;;;;;;;4.32;100.00;69044.78;5237702;34;33611;-87
2024/01/18 05:56:17;;;;;;;16.17;8.85;;;;;;;4.35;100.00;68988.94;5213592;34;33719;-88
2024/01/18 05:59:19;;;;;;;15.82;8.38;;;;;;;4.32;100.00;68989.25;5225312;34;33647;-87
2024/01/18 06:02:22;;;;;;;13.68;7.82;;;;;;;4.34;100.00;68987.78;5213774;34;34447;-88
2024/01/18 06:05:26;;;;;;;17.73;9.32;;;;;;;4.32;100.00;68989.25;5224764;34;33248;-84
2024/01/18 06:08:29;;;;;;;15.38;8.30;;;;;;;4.28;100.00;68982.00;5241333;33;33552;-84
2024/01/18 06:11:32;;;;;;;15.90;9.10;;;;;;;4.32;100.00;69044.22;5241863;33;33294;-84
2024/01/18 06:14:35;;;;;;;17.98;9.10;;;;;;;4.28;100.00;68984.06;5242129;33;33685;-84
2024/01/18 06:17:38;;;;;;;17.17;8.43;;;;;;;4.37;100.00;68993.88;5242244;33;33514;-84
2024/01/18 06:20:41;;;;;;;19.05;9.15;;;;;;;4.39;100.00;69051.72;5254620;33;33544;-84
2024/01/18 06:23:44;;;;;;;15.30;8.38;;;;;;;4.35;100.00;69047.09;5258341;33;33453;-84
2024/01/18 06:26:46;;;;;;;26.10;9.45;;;;;;;4.41;100.00;68998.50;5231085;33;34043;-84
2024/01/18 06:29:52;;;;;;;1997.63;807.40;;;;;;;4.40;100.00;68997.94;5267153;33;34134;-83
2024/01/18 06:32:55;;;;;;;1999.90;954.63;;;;;;;4.40;100.00;69050.81;5236372;33;35120;-83
2024/01/18 06:35:59;;;;;;;1999.90;963.50;;;;;;;4.39;100.00;68996.78;5246128;33;33219;-83
2024/01/18 06:39:02;;;;;;;1999.90;901.83;;;;;;;4.36;100.00;68993.31;5244828;33;34304;-83
2024/01/18 06:42:07;;;;;;;1999.90;928.00;;;;;;;4.32;100.00;68986.03;5245290;33;33352;-82
2024/01/18 06:45:10;;;;;;;1999.90;999.35;;;;;;;4.28;100.00;68982.00;5246480;33;34347;-83
2024/01/18 06:48:13;;;;;;;1999.90;973.58;;;;;;;4.30;100.00;68986.38;5258705;33;33769;-84
2024/01/18 06:51:17;;;;;;;1999.90;980.72;;;;;;;4.19;100.00;68971.59;5238938;33;33894;-84
2024/01/18 06:54:21;;;;;;;1999.90;936.55;;;;;;;4.14;100.00;68967.88;5243093;33;33384;-83
2024/01/18 06:57:24;;;;;;;1999.90;922.33;;;;;;;4.05;100.00;69010.91;5241287;33;34400;-83
2024/01/18 07:00:27;;;;;;;1999.90;939.05;;;;;;;3.99;100.00;68951.13;5240676;33;34002;-83
2024/01/18 07:03:30;;;;;;;1999.90;954.87;;;;;;;3.95;100.00;68946.50;5253678;33;33648;-82
2024/01/18 07:06:34;;;;;;;1999.90;944.17;;;;;;;3.86;100.00;68934.63;5230209;33;33372;-83
2024/01/18 07:09:41;;;;;;;1999.90;961.88;;;;;;;3.84;100.00;68932.31;5258112;33;34061;-83
2024/01/18 07:12:44;;;;;;;1999.90;936.95;;;;;;;3.83;100.00;68989.28;5241488;33;34433;-84
2024/01/18 07:15:47;;;;;;;1999.90;949.70;;;;;;;3.86;100.00;68936.66;5251957;33;34467;-82
2024/01/18 07:18:50;;;;;;;1999.90;935.97;;;;;;;3.92;100.00;68943.03;5263147;33;34596;-83
2024/01/18 07:21:53;;;;;;;1999.90;943.45;;;;;;;3.86;100.00;68990.09;5254823;33;33708;-83
2024/01/18 07:24:56;;;;;;;1999.90;976.28;;;;;;;3.78;100.00;68983.50;5251104;33;34518;-83
2024/01/18 07:27:59;;;;;;;1999.90;925.85;;;;;;;3.80;100.00;68983.16;5236387;33;34108;-84
2024/01/18 07:31:03;;;;;;;1999.90;944.45;;;;;;;3.90;100.00;68940.72;5229885;33;34090;-82
2024/01/18 07:34:05;;;;;;;1999.90;979.47;;;;;;;3.81;100.00;68928.25;5229105;33;33611;-83
2024/01/18 07:37:12;;;;;;;1999.90;946.55;;;;;;;3.74;100.00;68922.81;5245997;33;33982;-83
2024/01/18 07:40:15;;;;;;;1999.90;970.83;;;;;;;3.80;100.00;68927.09;5247605;33;34426;-83
2024/01/18 07:43:18;;;;;;;1999.90;989.85;;;;;;;3.87;100.00;68935.75;5266229;33;32548;-84
2024/01/18 07:46:21;;;;;;;1999.90;929.35;;;;;;;3.88;100.00;68938.97;5256790;33;34904;-84
2024/01/18 07:49:24;;;;;;;1999.90;951.78;;;;;;;3.92;100.00;68940.38;5247801;33;34186;-85
2024/01/18 07:52:27;;;;;;;1999.90;917.37;;;;;;;3.83;100.00;68931.16;5255023;33;33892;-83
2024/01/18 07:55:30;;;;;;;1999.90;946.63;;;;;;;3.75;100.00;68921.34;5241662;33;33923;-82
2024/01/18 07:58:33;;;;;;;1999.90;961.85;;;;;;;3.78;100.00;68927.44;5255419;33;33490;-83
2024/01/18 08:01:36;;;;;;;1999.90;973.97;;;;;;;3.71;100.00;68914.06;5254773;33;33736;-82
2024/01/18 08:04:42;;;;;;;1999.90;916.20;;;;;;;3.74;100.00;68922.81;5246075;33;33547;-82
2024/01/18 08:07:45;;;;;;;1999.90;933.85;;;;;;;3.81;100.00;68930.91;5229904;33;34334;-86
2024/01/18 08:10:48;;;;;;;1999.90;954.35;;;;;;;4.04;100.00;68954.25;5257069;33;34374;-86
2024/01/18 08:13:51;;;;;;;1999.90;964.97;;;;;;;3.89;100.00;68995.66;5242691;33;33811;-87
2024/01/18 08:16:55;;;;;;;1999.90;943.65;;;;;;;3.75;100.00;68976.81;5246500;33;33463;-84
2024/01/18 08:19:58;;;;;;;1999.90;969.75;;;;;;;3.77;100.00;68926.88;5251852;33;33662;-85
2024/01/18 08:23:01;;;;;;;1999.90;965.60;;;;;;;3.81;100.00;68930.91;5261623;33;33825;-84
2024/01/18 08:26:03;;;;;;;1999.90;963.60;;;;;;;3.89;100.00;68942.19;5260463;33;34515;-83
2024/01/18 08:29:07;;;;;;;1999.90;999.90;;;;;;;3.94;100.00;68945.34;5237448;33;34532;-83
2024/01/18 08:32:09;;;;;;;1999.90;999.90;;;;;;;3.94;100.00;68943.28;5231960;33;33691;-83
2024/01/18 08:35:12;;;;;;;1999.90;908.58;;;;;;;4.00;100.00;68949.63;5249632;33;33464;-83
2024/01/18 08:38:15;;;;;;;1997.32;767.25;;;;;;;4.12;100.00;68963.50;5255903;33;33762;-83
2024/01/18 08:41:21;;;;;;;1545.07;506.40;;;;;;;4.26;100.00;69037.28;5251426;33;34113;-83
2024/01/18 08:44:24;;;;;;;1143.85;343.70;;;;;;;4.34;100.00;69046.53;5252549;33;34714;-83
2024/01/18 08:47:27;;;;;;;1999.90;707.00;;;;;;;4.43;100.00;69004.03;5238715;33;34534;-84
2024/01/18 08:50:29;;;;;;;1999.90;917.88;;;;;;;4.52;100.00;69011.22;5243510;33;34043;-85
2024/01/18 08:53:33;;;;;;;1999.90;992.90;;;;;;;4.50;100.00;69012.16;5267538;33;34688;-84
2024/01/18 08:56:36;;;;;;;1999.90;939.15;;;;;;;4.65;100.00;69023.03;5274973;33;34163;-86
2024/01/18 08:59:39;;;;;;;1999.90;999.90;;;;;;;4.81;100.00;69043.59;5244734;33;33617;-82
2024/01/18 09:02:42;;;;;;;1999.90;934.62;;;;;;;4.92;100.00;69053.69;5259541;33;33520;-83
2024/01/18 09:05:45;;;;;;;1999.90;999.90;;;;;;;5.01;100.00;69064.09;5259198;33;34004;-83
2024/01/18 09:08:48;;;;;;;1999.90;969.28;;;;;;;5.07;100.00;69129.28;5232477;33;33634;-83
2024/01/18 09:11:52;;;;;;;1999.90;939.35;;;;;;;4.95;100.00;69115.97;5235635;33;34435;-81
2024/01/18 09:14:55;;;;;;;1999.90;956.42;;;;;;;4.94;100.00;69056.59;5257816;33;33862;-82
2024/01/18 09:17:58;;;;;;;1999.90;987.72;;;;;;;4.88;100.00;69049.03;5271021;33;35359;-82
2024/01/18 09:21:01;;;;;;;1999.90;968.17;;;;;;;4.86;100.00;69049.97;5270332;33;34162;-83
2024/01/18 09:24:04;;;;;;;1999.90;990.42;;;;;;;4.82;100.00;69045.34;5257848;33;34328;-83
2024/01/18 09:27:09;;;;;;;1999.90;957.87;;;;;;;4.91;100.00;69111.31;5270704;33;33430;-83
2024/01/18 09:30:13;;;;;;;1999.90;936.95;;;;;;;4.91;100.00;69055.16;5269510;33;33909;-83
2024/01/18 09:33:16;;;;;;;1999.90;999.90;;;;;;;5.06;100.00;69127.53;5260994;33;33479;-82
2024/01/18 09:36:20;;;;;;;1999.90;940.20;;;;;;;5.02;100.00;69067.88;5255933;33;33862;-81
2024/01/18 09:39:22;;;;;;;1999.90;976.37;;;;;;;5.17;100.00;69082.59;5239795;33;34537;-81
2024/01/18 09:42:34;;;;;;;1999.90;960.55;;;;;;;5.22;100.00;69146.63;5254564;33;33601;-82
2024/01/18 09:45:41;;;;;;;1999.90;949.03;;;;;;;5.31;100.00;69100.28;5262866;33;33958;-83
2024/01/18 09:48:45;;;;;;;1999.90;985.85;;;;;;;5.36;100.00;69161.69;5267108;33;34305;-82
2024/01/18 09:51:49;;;;;;;1999.90;999.90;;;;;;;5.38;100.00;69105.72;5263616;33;33802;-83
2024/01/18 09:54:53;;;;;;;1999.90;976.20;;;;;;;5.31;100.00;69097.63;5251344;33;33521;-83
2024/01/18 09:57:58;;;;;;;1999.90;999.90;;;;;;;5.41;100.00;69112.44;5264529;33;33785;-83
2024/01/18 10:01:04;;;;;;;1999.90;999.90;;;;;;;5.35;100.00;69104.91;5240510;33;34744;-82
2024/01/18 10:04:12;;;;;;;1999.90;998.30;;;;;;;5.35;100.00;69161.13;5261782;33;34564;-82
2024/01/18 10:07:15;;;;;;;1999.90;963.58;;;;;;;5.29;100.00;69101.19;5253459;33;34540;-83
2024/01/18 10:10:18;;;;;;;1999.90;994.10;;;;;;;5.26;100.00;69150.13;5241275;33;33794;-87
2024/01/18 10:13:21;;;;;;;1999.90;999.90;;;;;;;5.22;100.00;69091.03;5242442;33;33994;-87
2024/01/18 10:16:26;;;;;;;1999.90;990.97;;;;;;;5.23;100.00;69094.25;5242663;33;33584;-88
2024/01/18 10:19:28;;;;;;;1999.90;999.90;;;;;;;5.27;100.00;69095.66;5252832;33;34756;-83
2024/01/18 10:22:32;;;;;;;1999.90;987.97;;;;;;;5.07;100.00;69076.31;5256211;33;34641;-83
2024/01/18 10:25:35;;;;;;;1999.90;967.20;;;;;;;5.18;100.00;69085.84;5254523;33;34853;-84
2024/01/18 10:28:38;;;;;;;1999.90;988.15;;;;;;;5.25;100.00;69093.34;5257638;33;33933;-83
2024/01/18 10:31:42;;;;;;;1999.90;944.42;;;;;;;5.18;100.00;69086.41;5255460;33;34353;-83
2024/01/18 10:34:46;;;;;;;1999.90;999.90;;;;;;;5.11;100.00;69075.66;5245233;33;34386;-83
2024/01/18 10:37:59;;;;;;;1999.90;966.25;;;;;;;5.08;100.00;69133.06;5261319;33;34511;-82
2024/01/18 10:41:02;;;;;;;1999.90;999.90;;;;;;;5.12;100.00;69079.47;5260663;33;33718;-82
2024/01/18 10:44:05;;;;;;;1999.90;999.90;;;;;;;5.18;100.00;69144.66;5269348;33;34292;-82
2024/01/18 10:47:12;;;;;;;1999.90;996.58;;;;;;;5.17;100.00;69140.28;5272895;33;33387;-83
2024/01/18 10:50:16;;;;;;;1999.90;938.97;;;;;;;5.24;100.00;69090.13;5272925;33;35311;-83
2024/01/18 10:53:21;;;;;;;1999.90;999.90;;;;;;;5.23;100.00;69147.81;5266769;33;33799;-83
2024/01/18 10:56:23;;;;;;;1999.90;999.60;;;;;;;5.24;100.00;69145.75;5242717;33;33411;-82
2024/01/18 10:59:28;;;;;;;1999.90;999.90;;;;;;;5.28;100.00;69094.75;5243397;33;33788;-83
2024/01/18 11:02:32;;;;;;;1999.90;999.90;;;;;;;5.30;100.00;69101.78;5234815;33;33982;-82
2024/01/18 11:05:37;;;;;;;1999.90;971.33;;;;;;;5.26;100.00;69095.06;5257144;33;34485;-81
2024/01/18 11:08:41;;;;;;;1999.90;999.90;;;;;;;5.34;100.00;69101.09;5230428;33;34420;-81
2024/01/18 11:11:44;;;;;;;1999.90;999.90;;;;;;;5.38;100.00;69164.00;5264708;33;34719;-81
2024/01/18 11:14:47;;;;;;;1999.90;984.20;;;;;;;5.25;100.00;69093.91;5257458;33;34013;-81
2024/01/18 11:17:51;;;;;;;1999.90;981.78;;;;;;;5.34;100.00;69103.75;5263092;33;33768;-82
2024/01/18 11:20:57;;;;;;;1999.90;999.90;;;;;;;5.33;100.00;69102.59;5242716;33;34896;-81
2024/01/18 11:24:05;;;;;;;1999.90;999.90;;;;;;;5.34;100.00;69101.09;5257849;33;33871;-82
2024/01/18 11:27:18;;;;;;;1999.90;999.90;;;;;;;5.37;100.00;69107.22;5253163;33;34657;-83
2024/01/18 11:30:30;;;;;;;1999.90;983.95;;;;;;;5.35;100.00;69160.53;5247249;33;34465;-81
2024/01/18 11:33:33;;;;;;;1999.90;999.90;;;;;;;5.34;100.00;69101.09;5261236;33;33680;-81
2024/01/18 11:36:36;;;;;;;1999.90;999.90;;;;;;;5.51;100.00;69122.84;5248987;33;33386;-81
2024/01/18 11:39:48;;;;;;;1999.90;999.90;;;;;;;5.61;100.00;69132.34;5242631;33;34185;-82
2024/01/18 11:42:51;;;;;;;1999.90;999.90;;;;;;;5.66;100.00;69138.13;5259233;33;34516;-82
2024/01/18 11:45:54;;;;;;;1999.90;999.90;;;;;;;5.74;100.00;69149.47;5242013;33;34027;-83
2024/01/18 11:48:58;;;;;;;1999.90;999.90;;;;;;;5.75;100.00;69203.06;5258901;33;33746;-84
2024/01/18 11:52:01;;;;;;;1999.90;993.30;;;;;;;5.80;100.00;69153.19;5245319;33;34546;-86
2024/01/18 11:55:05;;;;;;;1999.90;999.90;;;;;;;5.65;100.00;69136.97;5251189;33;34228;-86
2024/01/18 11:58:08;;;;;;;1999.90;999.90;;;;;;;5.64;100.00;69135.81;5235964;33;33984;-83
2024/01/18 12:01:14;;;;;;;1999.90;975.53;;;;;;;5.50;100.00;69124.34;5237466;33;33774;-83
2024/01/18 12:04:17;;;;;;;1999.90;991.20;;;;;;;5.42;100.00;69113.59;5254713;33;33754;-83
2024/01/18 12:07:21;;;;;;;1999.90;993.67;;;;;;;5.49;100.00;69118.47;5220819;34;33706;-83
2024/01/18 12:10:26;;;;;;;1999.90;999.90;;;;;;;5.48;100.00;69175.59;5225338;34;32862;-83
2024/01/18 12:13:29;;;;;;;1999.90;999.90;;;;;;;5.57;100.00;69129.78;5224459;33;33729;-83
2024/01/18 12:16:34;;;;;;;1999.90;999.90;;;;;;;5.63;100.00;69134.66;5231458;34;34048;-83
2024/01/18 12:19:38;;;;;;;1999.90;999.90;;;;;;;5.62;100.00;69132.94;5220542;33;33885;-83
2024/01/18 12:22:43;;;;;;;1999.90;999.90;;;;;;;5.54;100.00;69129.56;5220295;34;34519;-83
2024/01/18 12:25:46;;;;;;;1999.90;999.90;;;;;;;5.50;100.00;69127.56;5242088;33;33808;-83
2024/01/18 12:28:51;;;;;;;1999.90;999.90;;;;;;;5.51;100.00;69126.06;5236504;34;33242;-83
2024/01/18 12:31:55;;;;;;;1999.90;999.90;;;;;;;5.50;100.00;69177.91;5229615;33;34038;-83
2024/01/18 12:34:59;;;;;;;1999.90;999.90;;;;;;;5.51;100.00;69123.44;5261975;33;34690;-83
2024/01/18 12:38:02;;;;;;;1999.90;999.90;;;;;;;5.49;100.00;69121.09;5227655;34;33775;-83
2024/01/18 12:41:06;;;;;;;1999.90;999.90;;;;;;;5.52;100.00;69124.56;5256437;33;34069;-83
2024/01/18 12:44:11;;;;;;;1999.90;978.90;;;;;;;5.57;100.00;69127.72;5239943;33;35036;-83
2024/01/18 12:47:14;;;;;;;1999.90;999.90;;;;;;;5.59;100.00;69132.69;5252823;33;33768;-83
2024/01/18 12:50:18;;;;;;;1999.90;999.90;;;;;;;5.63;100.00;69136.75;5260622;33;33657;-83
2024/01/18 12:53:23;;;;;;;1999.90;999.90;;;;;;;5.63;100.00;69134.66;5239270;33;33496;-83
2024/01/18 12:56:27;;;;;;;1999.90;999.90;;;;;;;5.67;100.00;69144.59;5256002;33;33545;-83
2024/01/18 12:59:30;;;;;;;1999.90;999.90;;;;;;;5.80;100.00;69211.50;5262616;33;33687;-83
2024/01/18 13:02:33;;;;;;;1999.90;999.90;;;;;;;5.89;100.00;69221.94;5261524;33;33718;-83
2024/01/18 13:05:47;;;;;;;1999.90;999.90;;;;;;;5.81;100.00;69154.34;5254016;33;33883;-83
2024/01/18 13:08:50;;;;;;;1999.90;999.90;;;;;;;5.81;100.00;85151.75;5266839;33;33930;-84
2024/01/18 13:11:54;;;;;;;1999.90;999.90;;;;;;;5.95;100.00;85170.31;5251520;33;35234;-83
2024/01/18 13:14:59;;;;;;;1999.90;999.90;;;;;;;6.11;100.00;85193.88;5258123;33;33667;-84
